San Francisco, CA

12:25 PM PST on November 28, 2014 (GMT -0800)
San Francisco International | Change Station
CLOSE
Current Station
Airport
Location: San Francisco,
Elevation: 16 ft
Nearby Weather Stations

Elev 16 ft 37.62 °N, 122.37 °W | Updated 29 minutes ago

Clear
Clear
57 °F
Feels Like 57 °F
N
5
Wind Variable Wind from ENE

Today
High -- | Low -- °F
--% Chance of Precip.
Yesterday
High -- | Low -- °F
Precip. -- in
7:02 AM 4:51 PM
Waxing Crescent, 43% visible
Pressure 29.99 in
Visibility 6.0 miles
Clouds Few 16000 ft
Dew Point 53 °F
Humidity 87%
Rainfall 0.00 in
Snow Depth Not available.
UV 3 out of 12
Pollen 2.30 out of 12
Air Quality Not available.
Flu Activity Not available.
METAR KSFO 281956Z 06004KT 6SM BR FEW160 14/12 A2998 RMK AO2 SLP153 T01390117 $

More Conditions Fewer Conditions

Pressure 29.99 in
Visibility 6.0 miles
Clouds Few 16000 ft
Dew Point 53 °F
Humidity 87%
Rainfall 0.00 in
Snow Depth Not available.
UV 3 out of 12
Pollen 2.30 out of 12
Air Quality Not available.
Flu Activity Not available.
METAR KSFO 281956Z 06004KT 6SM BR FEW160 14/12 A2998 RMK AO2 SLP153 T01390117 $

More Conditions Fewer Conditions

10-Day Weather Forecast

Almanac

Astronomy

Nov. 28, 2014 Rise Set
Actual Time
Civil Twilight
Nautical Twilight
Astronomical Twilight
Moon
Length of Visible Light
Length of Day
Tomorrow will be .
, % of the Moon is Illuminated

Today's Extremes

State Highs State Lows

Community

WunderPhotos

Upload Photos

1,774,274 photos uploaded!

WunderBlogs® & News

Nearby

Air Quality

  Air Quality AQ Index Pollutant
Not available.

Snow Depth

Station Depth Elevation

Earthquake Activity

City Distance Mag. Time & Date
Minimum magnitude displayed is 2.5.

Coastal Water Temperatures

Place Temperature

Nearby Weather Stations